METAR LDPL 280800Z 15005KT 060V220 CAVOK 28/22 Q1015 NOSIG=
METAR LDPL 280730Z 13005KT 050V190 CAVOK 27/22 Q1014 NOSIG=
METAR LDPL 280700Z 11007KT 090V150 CAVOK 26/21 Q1015 NOSIG=
METAR LDPL 280630Z 11007KT 080V150 CAVOK 26/21 Q1014 NOSIG=
METAR LDPL 280600Z 10007KT CAVOK 26/21 Q1014 NOSIG=
METAR LDPL 280530Z 10008KT CAVOK 24/21 Q1014 NOSIG=
METAR LDPL 280500Z 10007KT 9999 FEW050 24/22 Q1014 NOSIG=
METAR LDPL 280430Z 10006KT 9999 FEW050 23/22 Q1014 NOSIG=
METAR LDPL 280400Z 10006KT 9999 FEW050 22/21 Q1014 NOSIG=
METAR LDPL 280330Z 10007KT CAVOK 22/21 Q1014 NOSIG=
METAR LDPL 280300Z 09006KT CAVOK 22/20 Q1014 NOSIG=
METAR LDPL 280230Z 07004KT CAVOK 22/21 Q1014 NOSIG=
METAR LDPL 280200Z 08006KT CAVOK 23/21 Q1014 NOSIG=
METAR LDPL 280130Z 09005KT 050V120 CAVOK 23/21 Q1014=
METAR LDPL 280100Z 09005KT CAVOK 23/20 Q1015=
METAR LDPL 280030Z 10009KT CAVOK 24/19 Q1014=
METAR LDPL 280000Z 08004KT CAVOK 23/18 Q1015=
METAR LDPL 272330Z 07005KT CAVOK 23/19 Q1014=
METAR LDPL 272300Z 07005KT CAVOK 24/20 Q1015=
METAR LDPL 272230Z 06007KT 030V100 CAVOK 23/19 Q1015=
METAR LDPL 272200Z 08007KT 040V110 CAVOK 23/19 Q1015=
METAR LDPL 272130Z 04006KT 010V090 CAVOK 23/19 Q1015 NOSIG=
METAR LDPL 272100Z 04006KT 340V100 CAVOK 23/19 Q1015 NOSIG=
METAR LDPL 272030Z 03005KT 340V100 CAVOK 23/19 Q1015 NOSIG=
METAR LDPL 272000Z 03003KT 320V090 CAVOK 24/20 Q1016 NOSIG=
METAR LDPL 271930Z 07003KT 040V100 CAVOK 23/22 Q1015 NOSIG=
METAR LDPL 271900Z 09003KT 030V110 CAVOK 24/22 Q1015 NOSIG=
METAR LDPL 271830Z 08005KT CAVOK 24/19 Q1015 NOSIG=
METAR LDPL 271800Z 09006KT CAVOK 25/19 Q1015 NOSIG=
METAR LDPL 271730Z 10005KT CAVOK 27/18 Q1015 NOSIG=
METAR LDPL 271700Z 11005KT 090V150 CAVOK 28/19 Q1015 NOSIG=
METAR LDPL 271630Z 12006KT 090V160 CAVOK 28/19 Q1015 NOSIG=
METAR LDPL 271600Z 10008KT CAVOK 29/18 Q1015 NOSIG=
METAR LDPL 271530Z 09009KT CAVOK 29/17 Q1015 NOSIG=
METAR LDPL 271500Z 12007KT 080V150 CAVOK 29/17 Q1015 NOSIG=
METAR LDPL 271430Z 13007KT 090V180 CAVOK 31/15 Q1016 NOSIG=
METAR LDPL 271400Z 13006KT 080V200 CAVOK 31/17 Q1016 NOSIG=
METAR LDPL 271330Z 14006KT 090V190 CAVOK 31/17 Q1016 NOSIG=
METAR LDPL 271300Z 11008KT 080V160 CAVOK 30/18 Q1016 NOSIG=
METAR LDPL 271230Z 11007KT 070V160 CAVOK 29/19 Q1016 NOSIG=
METAR LDPL 271200Z 10008KT 070V130 CAVOK 28/20 Q1016 NOSIG=
METAR LDPL 271130Z 09010KT CAVOK 28/20 Q1016 NOSIG=
METAR LDPL 271100Z 10005KT 070V150 CAVOK 28/20 Q1017 NOSIG=
METAR LDPL 271030Z 09005KT 040V130 CAVOK 27/22 Q1017 NOSIG=
METAR LDPL 271000Z 08010KT 9999 -RA SCT050 26/22 Q1017 NOSIG=
METAR LDPL 270930Z 12004KT 100V170 CAVOK 27/21 Q1018 NOSIG=
METAR LDPL 270900Z 08007KT CAVOK 27/21 Q1017 NOSIG=
METAR LDPL 270830Z 10006KT CAVOK 27/21 Q1017 NOSIG=
METAR LDPL 270800Z 12004KT 070V190 CAVOK 28/22 Q1017 NOSIG=
METAR LDPL 270730Z 10007KT CAVOK 26/23 Q1017 NOSIG=
METAR LDPL 270700Z 09006KT 9999 FEW006 25/24 Q1016 NOSIG=
METAR LDPL 270630Z 07008KT 9999 FEW005 26/23 Q1015 TEMPO SHRA=
METAR LDPL 270600Z 08008KT CAVOK 25/23 Q1016 TEMPO SHRA=
METAR LDPL 270530Z 10006KT 9999 FEW045 24/22 Q1016 TEMPO SHRA=
METAR LDPL 270500Z 10003KT 080V200 9999 VCSH FEW045TCU 24/23 Q1016 TEMPO TSRA FEW040CB=
METAR LDPL 270430Z 10005KT 070V130 9999 -RA FEW045 24/23 Q1016 TEMPO FEW040TCU=
METAR LDPL 270400Z 10008KT 9999 FEW005 24/23 Q1015 NOSIG=
METAR LDPL 270330Z 11007KT 9999 FEW005 24/23 Q1015 NOSIG=
METAR LDPL 270300Z 11009KT 9999 FEW005 24/23 Q1015 NOSIG=
METAR LDPL 270230Z 10010KT CAVOK 24/23 Q1015 NOSIG=
METAR LDPL 270200Z 10008KT CAVOK 24/23 Q1015 NOSIG=
METAR LDPL 270130Z 10009KT CAVOK 24/23 Q1015=
METAR LDPL 270100Z 09007KT CAVOK 23/23 Q1015=
METAR LDPL 270030Z 09007KT CAVOK 24/23 Q1015=
METAR LDPL 270000Z 10007KT CAVOK 24/23 Q1015=
METAR LDPL 262330Z 09007KT CAVOK 24/23 Q1015=
METAR LDPL 262300Z 09008KT CAVOK 24/23 Q1015=
METAR LDPL 262230Z 08007KT CAVOK 24/22 Q1014=
METAR LDPL 262200Z 09009KT CAVOK 24/22 Q1015=
METAR LDPL 262130Z 10009KT CAVOK 24/20 Q1014 NOSIG=
METAR LDPL 262100Z 07007KT CAVOK 24/20 Q1014 NOSIG=
METAR LDPL 262030Z 06006KT CAVOK 24/21 Q1014 NOSIG=